createdAt,value
2023-02-22T00:01:28.312Z,101328.47
2023-02-22T00:03:54.909Z,101346.34
2023-02-22T00:06:25.181Z,101356.88
2023-02-22T00:08:52.570Z,101342.13
2023-02-22T00:11:20.680Z,101330.19
2023-02-22T00:13:50.392Z,101345.81
2023-02-22T00:16:21.826Z,101340.56
2023-02-22T00:18:49.603Z,101318.16
2023-02-22T00:21:17.389Z,101344.69
2023-02-22T00:23:46.641Z,101336.63
2023-02-22T00:26:18.426Z,101348.69
2023-02-22T00:28:50.711Z,101343.31
2023-02-22T00:31:18.895Z,101341.34
2023-02-22T00:33:45.776Z,101318.19
2023-02-22T00:36:13.469Z,101324.00
2023-02-22T00:38:41.554Z,101323.44
2023-02-22T00:41:08.741Z,101330.13
2023-02-22T00:43:35.548Z,101327.41
2023-02-22T00:46:02.716Z,101335.09
2023-02-22T00:48:29.489Z,101338.50
2023-02-22T00:50:56.390Z,101329.84
2023-02-22T00:53:24.723Z,101334.81
2023-02-22T00:55:51.772Z,101318.38
2023-02-22T00:58:18.742Z,101325.19
2023-02-22T01:00:45.697Z,101329.31
2023-02-22T01:03:15.069Z,101324.03
2023-02-22T01:05:42.740Z,101332.97
2023-02-22T01:08:13.040Z,101328.31
2023-02-22T01:10:40.054Z,101327.44
2023-02-22T01:13:12.585Z,101326.47
2023-02-22T01:15:41.884Z,101330.03
2023-02-22T01:18:09.452Z,101311.13
2023-02-22T01:20:36.882Z,101331.84
2023-02-22T01:23:07.295Z,101317.81
2023-02-22T01:25:34.960Z,101303.59
2023-02-22T01:28:02.852Z,101320.63
2023-02-22T01:30:33.097Z,101324.75
2023-02-22T01:33:01.847Z,101318.38
2023-02-22T01:35:32.831Z,101313.00
2023-02-22T01:37:59.773Z,101302.06
2023-02-22T01:40:33.211Z,101310.47
2023-02-22T01:43:03.549Z,101307.78
2023-02-22T01:45:30.147Z,101305.91
2023-02-22T01:48:03.881Z,101297.13
2023-02-22T01:50:35.141Z,101292.44
2023-02-22T01:53:03.172Z,101289.47
2023-02-22T01:55:30.929Z,101280.78
2023-02-22T01:57:57.955Z,101282.53
2023-02-22T02:00:27.707Z,101281.25
2023-02-22T02:03:00.077Z,101291.47
2023-02-22T02:05:31.374Z,101275.41
2023-02-22T02:08:03.480Z,101284.66
2023-02-22T02:10:31.545Z,101281.81
2023-02-22T02:12:58.813Z,101280.78
2023-02-22T02:15:29.397Z,101288.88
2023-02-22T02:18:00.804Z,101280.94
2023-02-22T02:20:38.552Z,101264.50
2023-02-22T02:23:29.619Z,101267.34
2023-02-22T02:26:32.424Z,101272.00
2023-02-22T02:29:14.310Z,101271.91
2023-02-22T02:31:59.531Z,101269.06
2023-02-22T02:34:37.705Z,101269.78
2023-02-22T02:37:18.127Z,101250.63
2023-02-22T02:39:59.255Z,101255.44
2023-02-22T02:42:35.458Z,101255.44
2023-02-22T02:45:11.810Z,101247.06
2023-02-22T02:47:44.681Z,101249.22
2023-02-22T02:50:22.415Z,101226.53
2023-02-22T02:52:50.959Z,101228.53
2023-02-22T02:55:18.768Z,101220.72
2023-02-22T02:57:45.420Z,101220.44
2023-02-22T03:00:24.440Z,101214.34
2023-02-22T03:03:25.034Z,101236.03
2023-02-22T03:06:10.250Z,101226.84
2023-02-22T03:09:04.040Z,101229.38
2023-02-22T03:12:02.270Z,101224.16
2023-02-22T03:15:00.364Z,101224.28
2023-02-22T03:17:45.534Z,101225.13
2023-02-22T03:20:31.899Z,101226.97
2023-02-22T03:23:12.669Z,101222.59
2023-02-22T03:25:51.886Z,101208.97
2023-02-22T03:28:21.620Z,101220.00
2023-02-22T03:30:57.561Z,101204.56
2023-02-22T03:33:33.977Z,101224.56
2023-02-22T03:36:25.054Z,101214.78
2023-02-22T03:38:56.959Z,101228.22
2023-02-22T03:41:25.846Z,101221.16
2023-02-22T03:43:56.617Z,101222.13
2023-02-22T03:46:23.822Z,101220.56
2023-02-22T03:49:04.740Z,101222.00
2023-02-22T03:51:31.504Z,101211.22
2023-02-22T03:53:58.189Z,101218.03
2023-02-22T03:56:37.251Z,101218.88
2023-02-22T03:59:10.076Z,101213.34
2023-02-22T04:01:36.940Z,101225.22
2023-02-22T04:04:03.893Z,101230.75
2023-02-22T04:06:30.582Z,101214.16
2023-02-22T04:08:57.286Z,101219.97
2023-02-22T04:11:23.870Z,101224.09
2023-02-22T04:13:50.622Z,101220.22
2023-02-22T04:16:17.292Z,101236.13
2023-02-22T04:18:44.001Z,101243.19
2023-02-22T04:21:10.668Z,101235.50
2023-02-22T04:23:37.352Z,101231.28
2023-02-22T04:26:04.038Z,101224.47
2023-02-22T04:28:30.747Z,101215.81
2023-02-22T04:30:57.407Z,101229.13
2023-02-22T04:33:24.169Z,101229.69
2023-02-22T04:35:51.590Z,101229.56
2023-02-22T04:38:18.557Z,101230.97
2023-02-22T04:40:46.234Z,101242.03
2023-02-22T04:43:12.879Z,101227.16
2023-02-22T04:45:39.540Z,101223.03
2023-02-22T04:48:06.193Z,101225.28
2023-02-22T04:50:32.777Z,101233.09
2023-02-22T04:52:59.449Z,101219.88
2023-02-22T04:55:26.109Z,101231.66
2023-02-22T04:57:52.677Z,101215.19
2023-02-22T05:00:21.803Z,101214.34
2023-02-22T05:02:49.625Z,101236.91
2023-02-22T05:05:18.613Z,101224.41
2023-02-22T05:07:45.227Z,101235.63
2023-02-22T05:10:11.864Z,101222.72
2023-02-22T05:12:38.445Z,101226.38
2023-02-22T05:15:06.786Z,101219.31
2023-02-22T05:17:34.010Z,101232.47
2023-02-22T05:20:00.660Z,101222.25
2023-02-22T05:22:27.372Z,101231.50
2023-02-22T05:24:54.054Z,101219.88
2023-02-22T05:27:20.793Z,101227.56
2023-02-22T05:29:47.403Z,101216.50
2023-02-22T05:32:14.380Z,101229.69
2023-02-22T05:34:41.186Z,101235.50
2023-02-22T05:37:07.847Z,101225.56
2023-02-22T05:39:34.550Z,101235.06
2023-02-22T05:42:01.267Z,101226.09
2023-02-22T05:44:28.221Z,101227.53
2023-02-22T05:46:54.817Z,101240.69
2023-02-22T05:49:21.448Z,101226.34
2023-02-22T05:51:48.069Z,101238.72
2023-02-22T05:54:14.684Z,101219.00
2023-02-22T05:56:41.355Z,101224.84
2023-02-22T05:59:07.929Z,101230.66
2023-02-22T06:01:34.520Z,101236.44
2023-02-22T06:04:01.222Z,101240.69
2023-02-22T06:06:27.857Z,101245.81
2023-02-22T06:08:54.501Z,101248.50
2023-02-22T06:11:21.141Z,101235.59
2023-02-22T06:13:52.478Z,101242.41
2023-02-22T06:16:21.520Z,101248.75
2023-02-22T06:18:48.829Z,101247.50
2023-02-22T06:21:15.950Z,101249.47
2023-02-22T06:23:42.716Z,101234.03
2023-02-22T06:26:10.484Z,101237.69
2023-02-22T06:28:37.140Z,101232.75
2023-02-22T06:31:04.053Z,101252.16
2023-02-22T06:33:31.104Z,101252.72
2023-02-22T06:35:57.828Z,101259.97
2023-02-22T06:38:27.992Z,101255.88
2023-02-22T06:40:58.089Z,101265.63
2023-02-22T06:43:25.900Z,101262.94
2023-02-22T06:45:53.155Z,101254.84
2023-02-22T06:48:19.889Z,101273.16
2023-02-22T06:50:46.619Z,101252.16
2023-02-22T06:53:13.242Z,101269.78
2023-02-22T06:55:39.800Z,101263.03
2023-02-22T06:58:06.461Z,101268.25
2023-02-22T07:00:33.881Z,101275.50
2023-02-22T07:03:01.167Z,101263.13
2023-02-22T07:05:28.778Z,101284.97
2023-02-22T07:08:02.550Z,101276.19
2023-02-22T07:10:31.396Z,101276.91
2023-02-22T07:12:58.327Z,101267.41
2023-02-22T07:15:27.952Z,101276.63
2023-02-22T07:17:54.648Z,101265.56
2023-02-22T07:20:23.002Z,101270.66
2023-02-22T07:22:50.356Z,101277.06
2023-02-22T07:25:17.535Z,101278.94
2023-02-22T07:27:44.439Z,101283.22
2023-02-22T07:30:20.660Z,101280.13
2023-02-22T07:32:47.553Z,101274.47
2023-02-22T07:35:23.173Z,101274.19
2023-02-22T07:37:49.921Z,101278.63
2023-02-22T07:40:18.052Z,101282.88
2023-02-22T07:43:14.293Z,101282.16
2023-02-22T07:45:41.269Z,101282.22
2023-02-22T07:48:09.226Z,101280.94
2023-02-22T07:50:36.318Z,101274.97
2023-02-22T07:53:06.141Z,101273.09
2023-02-22T07:55:34.176Z,101274.66
2023-02-22T07:58:03.879Z,101272.47
2023-02-22T08:00:39.323Z,101276.44
2023-02-22T08:03:08.905Z,101271.41
2023-02-22T08:05:37.095Z,101270.81
2023-02-22T08:08:06.187Z,101275.16
2023-02-22T08:10:35.057Z,101269.63
2023-02-22T08:13:02.130Z,101279.41
2023-02-22T08:15:31.718Z,101276.56
2023-02-22T08:18:00.259Z,101280.38
2023-02-22T08:20:31.510Z,101273.25
2023-02-22T08:22:59.419Z,101267.16
2023-02-22T08:25:31.226Z,101261.88
2023-02-22T08:28:01.334Z,101266.56
2023-02-22T08:30:31.250Z,101270.97
2023-02-22T08:32:58.617Z,101269.31
2023-02-22T08:35:27.475Z,101268.56
2023-02-22T08:37:55.245Z,101265.16
2023-02-22T08:40:24.817Z,101256.78
2023-02-22T08:42:52.086Z,101266.63
2023-02-22T08:45:18.960Z,101269.13
2023-02-22T08:47:45.960Z,101273.25
2023-02-22T08:50:22.690Z,101266.81
2023-02-22T08:53:01.723Z,101264.66
2023-02-22T08:55:32.267Z,101270.19
2023-02-22T08:58:03.277Z,101266.88
2023-02-22T09:00:35.333Z,101262.47
2023-02-22T09:03:03.525Z,101267.22
2023-02-22T09:05:31.583Z,101267.47
2023-02-22T09:07:58.655Z,101248.50
2023-02-22T09:10:29.587Z,101257.78
2023-02-22T09:12:57.001Z,101261.38
2023-02-22T09:15:25.203Z,101261.22
2023-02-22T09:17:52.218Z,101253.75
2023-02-22T09:20:21.572Z,101256.53
2023-02-22T09:22:49.484Z,101258.22
2023-02-22T09:25:17.670Z,101247.81
2023-02-22T09:27:48.015Z,101250.34
2023-02-22T09:30:32.217Z,101244.31
2023-02-22T09:33:02.351Z,101249.91
2023-02-22T09:35:29.396Z,101254.28
2023-02-22T09:37:57.655Z,101242.91
2023-02-22T09:40:32.644Z,101238.53
2023-02-22T09:43:01.986Z,101252.94
2023-02-22T09:45:36.975Z,101248.81
2023-02-22T09:48:20.856Z,101250.38
2023-02-22T09:50:53.688Z,101246.84
2023-02-22T09:53:29.750Z,101251.22
2023-02-22T09:56:06.596Z,101246.13
2023-02-22T09:58:43.177Z,101246.59
2023-02-22T10:01:15.618Z,101248.56
2023-02-22T10:03:48.164Z,101241.63
2023-02-22T10:06:17.709Z,101242.78
2023-02-22T10:08:45.321Z,101235.41
2023-02-22T10:11:25.673Z,101233.38
2023-02-22T10:14:29.842Z,101228.91
2023-02-22T10:17:15.718Z,101234.13
2023-02-22T10:20:02.013Z,101227.59
2023-02-22T10:22:53.486Z,101223.13
2023-02-22T10:25:27.492Z,101229.06
2023-02-22T10:28:06.288Z,101227.16
2023-02-22T10:30:49.307Z,101217.94
2023-02-22T10:33:22.264Z,101219.88
2023-02-22T10:35:52.670Z,101215.91
2023-02-22T10:38:24.391Z,101224.72
2023-02-22T10:40:57.950Z,101223.03
2023-02-22T10:43:25.765Z,101218.28
2023-02-22T10:46:02.938Z,101212.00
2023-02-22T10:48:32.140Z,101214.16
2023-02-22T10:51:02.113Z,101207.47
2023-02-22T10:53:30.029Z,101192.31
2023-02-22T10:56:22.493Z,101184.41
2023-02-22T10:58:57.768Z,101203.88
2023-02-22T11:01:37.877Z,101201.25
2023-02-22T11:04:18.287Z,101193.16
2023-02-22T11:06:48.358Z,101188.91
2023-02-22T11:09:22.614Z,101191.66
2023-02-22T11:11:53.701Z,101193.47
2023-02-22T11:14:30.990Z,101179.41
2023-02-22T11:16:59.487Z,101174.38
2023-02-22T11:19:29.018Z,101174.16
2023-02-22T11:21:59.468Z,101172.19
2023-02-22T11:24:30.438Z,101162.47
2023-02-22T11:27:05.937Z,101153.16
2023-02-22T11:29:37.582Z,101156.72
2023-02-22T11:32:22.514Z,101143.16
2023-02-22T11:35:03.478Z,101142.47
2023-02-22T11:37:34.780Z,101149.91
2023-02-22T11:40:22.137Z,101143.44
2023-02-22T11:42:57.222Z,101130.81
2023-02-22T11:45:25.806Z,101131.13
2023-02-22T11:48:01.439Z,101128.91
2023-02-22T11:50:51.523Z,101125.72
2023-02-22T11:53:34.562Z,101125.69
2023-02-22T11:56:36.767Z,101125.00
2023-02-22T11:59:26.826Z,101123.81
2023-02-22T12:02:18.542Z,101119.03
2023-02-22T12:05:08.141Z,101116.69
2023-02-22T12:07:59.031Z,101113.91
2023-02-22T12:10:38.785Z,101108.84
2023-02-22T12:13:05.189Z,101109.69
2023-02-22T12:15:51.428Z,101103.47
2023-02-22T12:18:35.574Z,101104.41
2023-02-22T12:21:08.530Z,101102.19
2023-02-22T12:23:50.844Z,101111.59
2023-02-22T12:26:39.641Z,101100.19
2023-02-22T12:29:26.055Z,101091.88
2023-02-22T12:32:00.825Z,101092.28
2023-02-22T12:34:52.325Z,101101.88
2023-02-22T12:37:34.970Z,101097.66
2023-02-22T12:40:14.769Z,101092.66
2023-02-22T12:42:55.791Z,101088.16
2023-02-22T12:45:37.185Z,101088.34
2023-02-22T12:48:26.309Z,101091.44
2023-02-22T12:51:02.232Z,101086.72
2023-02-22T12:53:35.380Z,101081.50
2023-02-22T12:56:20.138Z,101080.31
2023-02-22T12:58:56.938Z,101082.34
2023-02-22T13:01:30.242Z,101075.06
2023-02-22T13:03:57.019Z,101072.38
2023-02-22T13:06:45.193Z,101076.06
2023-02-22T13:09:57.887Z,101083.13
2023-02-22T13:12:57.735Z,101077.38
2023-02-22T13:15:24.357Z,101082.59
2023-02-22T13:18:29.806Z,101073.31
2023-02-22T13:21:16.597Z,101073.50
2023-02-22T13:24:05.331Z,101078.09
2023-02-22T13:26:43.865Z,101063.19
2023-02-22T13:29:16.490Z,101070.13
2023-02-22T13:32:04.654Z,101063.19
2023-02-22T13:34:34.103Z,101067.44
2023-02-22T13:37:37.731Z,101064.22
2023-02-22T13:40:27.420Z,101052.19
2023-02-22T13:43:14.645Z,101055.41
2023-02-22T13:46:00.255Z,101062.13
2023-02-22T13:48:56.406Z,101053.13
2023-02-22T13:51:52.857Z,101056.75
2023-02-22T13:54:40.431Z,101056.69
2023-02-22T13:57:22.148Z,101014.78
2023-02-22T13:59:49.285Z,101051.56
2023-02-22T14:02:58.389Z,101049.91
2023-02-22T14:05:40.945Z,101056.34
2023-02-22T14:08:08.817Z,101057.78
2023-02-22T14:10:57.719Z,101051.00
2023-02-22T14:13:29.303Z,101037.00
2023-02-22T14:15:59.976Z,101050.38
2023-02-22T14:18:28.782Z,101047.69
2023-02-22T14:21:16.892Z,101040.13
2023-02-22T14:23:45.578Z,101037.16
2023-02-22T14:26:33.910Z,101039.16
2023-02-22T14:29:10.107Z,101028.38
2023-02-22T14:31:50.099Z,101030.97
2023-02-22T14:34:19.613Z,101034.09
2023-02-22T14:37:12.347Z,101026.69
2023-02-22T14:39:52.483Z,101020.25
2023-02-22T14:42:28.291Z,101030.38
2023-02-22T14:45:05.617Z,101028.88
2023-02-22T14:47:49.491Z,101024.78
2023-02-22T14:50:29.105Z,101022.59
2023-02-22T14:53:18.623Z,101024.19
2023-02-22T14:55:56.640Z,101029.28
2023-02-22T14:58:29.407Z,101027.31
2023-02-22T15:00:57.165Z,101023.28
2023-02-22T15:03:23.972Z,101027.69
2023-02-22T15:05:50.716Z,101019.38
2023-02-22T15:08:18.923Z,101013.97
2023-02-22T15:10:48.149Z,101018.38
2023-02-22T15:13:18.901Z,101019.03
2023-02-22T15:15:54.739Z,101021.88
2023-02-22T15:18:27.203Z,101014.16
2023-02-22T15:20:58.190Z,101015.16
2023-02-22T15:23:30.329Z,101004.53
2023-02-22T15:25:58.054Z,101018.00
2023-02-22T15:28:29.067Z,101002.94
2023-02-22T15:31:34.151Z,101015.09
2023-02-22T15:34:30.701Z,101011.41
2023-02-22T15:37:18.630Z,101018.81
2023-02-22T15:39:45.211Z,101020.94
2023-02-22T15:42:21.020Z,101012.13
2023-02-22T15:44:49.780Z,101003.69
2023-02-22T15:47:20.617Z,101013.16
2023-02-22T15:50:25.646Z,101008.97
2023-02-22T15:53:01.748Z,101009.59
2023-02-22T15:55:37.610Z,101000.63
2023-02-22T15:58:16.271Z,101005.56
2023-02-22T16:01:07.145Z,101001.03
2023-02-22T16:03:47.514Z,100999.19
2023-02-22T16:06:28.640Z,101001.53
2023-02-22T16:08:58.759Z,101002.41
2023-02-22T16:11:32.957Z,100997.97
2023-02-22T16:14:23.360Z,100991.84
2023-02-22T16:16:50.109Z,100989.78
2023-02-22T16:19:42.020Z,100997.03
2023-02-22T16:22:23.597Z,100999.50
2023-02-22T16:24:52.491Z,100977.91
2023-02-22T16:27:21.002Z,100998.84
2023-02-22T16:30:25.517Z,100996.75
2023-02-22T16:32:55.384Z,100994.53
2023-02-22T16:35:28.579Z,100991.06
2023-02-22T16:38:16.895Z,100992.22
2023-02-22T16:41:04.946Z,100989.63
2023-02-22T16:43:35.314Z,100997.66
2023-02-22T16:46:03.745Z,100993.88
2023-02-22T16:48:38.264Z,100992.94
2023-02-22T16:51:15.808Z,100988.16
2023-02-22T16:53:42.807Z,100985.38
2023-02-22T16:56:11.816Z,100975.53
2023-02-22T16:58:40.571Z,100972.75
2023-02-22T17:01:07.729Z,100996.41
2023-02-22T17:03:34.391Z,100999.72
2023-02-22T17:06:01.256Z,100991.13
2023-02-22T17:08:27.880Z,101004.91
2023-02-22T17:10:56.983Z,101009.63
2023-02-22T17:13:27.272Z,101018.31
2023-02-22T17:15:55.040Z,101022.41
2023-02-22T17:18:23.557Z,101013.41
2023-02-22T17:20:51.636Z,101019.38
2023-02-22T17:23:19.232Z,101018.09
2023-02-22T17:25:59.252Z,101013.03
2023-02-22T17:28:26.608Z,101020.13
2023-02-22T17:30:55.169Z,101019.88
2023-02-22T17:33:27.278Z,101027.09
2023-02-22T17:35:57.831Z,101032.09
2023-02-22T17:38:29.098Z,101036.06
2023-02-22T17:40:56.826Z,101033.94
2023-02-22T17:43:25.017Z,101024.19
2023-02-22T17:45:51.814Z,101022.94
2023-02-22T17:48:18.604Z,101030.31
2023-02-22T17:50:46.789Z,101018.28
2023-02-22T17:53:13.888Z,101032.31
2023-02-22T17:55:42.785Z,101044.22
2023-02-22T17:58:14.542Z,101036.72
2023-02-22T18:00:45.864Z,101037.28
2023-02-22T18:03:16.206Z,101034.47
2023-02-22T18:05:46.317Z,101039.28
2023-02-22T18:08:14.203Z,101040.09
2023-02-22T18:10:42.462Z,101034.59
2023-02-22T18:13:09.824Z,101037.28
2023-02-22T18:15:40.174Z,101036.84
2023-02-22T18:18:06.843Z,101027.06
2023-02-22T18:20:39.868Z,101033.56
2023-02-22T18:23:08.153Z,101025.94
2023-02-22T18:25:36.650Z,101028.63
2023-02-22T18:28:06.331Z,101034.31
2023-02-22T18:30:37.910Z,101023.97
2023-02-22T18:33:04.722Z,101015.19
2023-02-22T18:35:31.700Z,101025.13
2023-02-22T18:37:58.355Z,101014.34
2023-02-22T18:40:24.989Z,101014.91
2023-02-22T18:42:51.588Z,101012.75
2023-02-22T18:45:18.275Z,101019.00
2023-02-22T18:47:45.597Z,101016.16
2023-02-22T18:50:13.337Z,101021.09
2023-02-22T18:52:46.078Z,101020.81
2023-02-22T18:55:19.693Z,100994.50
2023-02-22T18:57:47.488Z,101006.09
2023-02-22T19:00:17.732Z,100996.75
2023-02-22T19:02:44.435Z,101008.34
2023-02-22T19:05:13.079Z,101005.97
2023-02-22T19:07:39.923Z,101007.78
2023-02-22T19:10:08.712Z,101020.25
2023-02-22T19:12:36.141Z,101020.09
2023-02-22T19:15:02.975Z,101018.09
2023-02-22T19:17:31.159Z,101019.66
2023-02-22T19:19:57.800Z,101021.34
2023-02-22T19:22:26.372Z,101021.22
2023-02-22T19:24:57.321Z,101027.56
2023-02-22T19:27:24.901Z,101022.75
2023-02-22T19:29:51.890Z,101025.28
2023-02-22T19:32:18.918Z,101025.28
2023-02-22T19:34:45.851Z,101018.78
2023-02-22T19:37:13.185Z,101021.03
2023-02-22T19:39:42.464Z,101017.09
2023-02-22T19:42:10.305Z,101014.84
2023-02-22T19:44:37.440Z,101029.44
2023-02-22T19:47:09.033Z,101036.09
2023-02-22T19:49:37.498Z,101034.09
2023-02-22T19:52:06.593Z,101038.91
2023-02-22T19:54:33.766Z,101035.25
2023-02-22T19:57:00.777Z,101031.84
2023-02-22T19:59:28.031Z,101030.44
2023-02-22T20:01:56.132Z,101041.47
2023-02-22T20:04:23.379Z,101037.50
2023-02-22T20:06:54.608Z,101038.91
2023-02-22T20:09:23.981Z,101041.47
2023-02-22T20:11:53.861Z,101034.25
2023-02-22T20:14:23.553Z,101042.31
2023-02-22T20:16:51.790Z,101048.00
2023-02-22T20:19:18.590Z,101034.56
2023-02-22T20:21:45.274Z,101030.72
2023-02-22T20:24:15.331Z,101035.13
2023-02-22T20:26:43.327Z,101044.88
2023-02-22T20:29:13.794Z,101040.06
2023-02-22T20:31:42.117Z,101038.38
2023-02-22T20:34:12.029Z,101039.53
2023-02-22T20:36:41.403Z,101027.91
2023-02-22T20:39:13.473Z,101021.13
2023-02-22T20:41:42.681Z,101033.84
2023-02-22T20:44:13.544Z,101033.44
2023-02-22T20:46:40.242Z,101038.53
2023-02-22T20:49:13.814Z,101032.44
2023-02-22T20:51:41.860Z,101038.53
2023-02-22T20:54:12.112Z,101032.44
2023-02-22T20:56:41.925Z,101044.94
2023-02-22T20:59:14.452Z,101035.44
2023-02-22T21:01:42.250Z,101034.59
2023-02-22T21:04:10.355Z,101039.09
2023-02-22T21:06:39.017Z,101034.72
2023-02-22T21:09:08.788Z,101025.94
2023-02-22T21:11:35.677Z,101030.19
2023-02-22T21:14:03.226Z,101031.75
2023-02-22T21:16:33.381Z,101033.44
2023-02-22T21:19:02.722Z,101026.19
2023-02-22T21:21:30.879Z,101022.69
2023-02-22T21:24:01.977Z,101023.97
2023-02-22T21:26:31.217Z,101014.34
2023-02-22T21:29:00.520Z,101024.66
2023-02-22T21:31:28.017Z,101019.72
2023-02-22T21:33:57.345Z,101011.94
2023-02-22T21:36:27.217Z,101012.09
2023-02-22T21:38:58.713Z,101014.66
2023-02-22T21:41:30.229Z,101019.44
2023-02-22T21:43:58.438Z,101010.50
2023-02-22T21:46:27.303Z,101012.09
2023-02-22T21:48:53.952Z,101008.09
2023-02-22T21:51:25.842Z,100996.06
2023-02-22T21:53:54.698Z,101001.59
2023-02-22T21:56:29.089Z,100998.75
2023-02-22T21:59:03.256Z,100998.19
2023-02-22T22:01:33.878Z,100998.75
2023-02-22T22:04:01.948Z,101003.44
2023-02-22T22:06:30.388Z,100998.19
2023-02-22T22:08:59.829Z,100999.16
2023-02-22T22:11:26.723Z,100974.94
2023-02-22T22:13:57.564Z,100995.78
2023-02-22T22:16:27.146Z,100990.84
2023-02-22T22:18:54.808Z,100990.69
2023-02-22T22:21:23.985Z,100995.06
2023-02-22T22:23:54.340Z,100991.22
2023-02-22T22:26:24.532Z,100993.31
2023-02-22T22:28:57.735Z,100991.75
2023-02-22T22:31:26.118Z,100995.84
2023-02-22T22:33:54.163Z,100987.59
2023-02-22T22:36:22.399Z,100995.50
2023-02-22T22:38:49.322Z,100990.97
2023-02-22T22:41:18.897Z,100987.56
2023-02-22T22:43:46.192Z,100993.03
2023-02-22T22:46:15.381Z,100996.00
2023-02-22T22:48:43.166Z,100995.13
2023-02-22T22:51:13.140Z,100981.88
2023-02-22T22:53:42.772Z,100984.13
2023-02-22T22:56:15.837Z,100982.44
2023-02-22T22:58:46.866Z,100987.13
2023-02-22T23:01:19.619Z,100975.41
2023-02-22T23:03:56.701Z,100986.31
2023-02-22T23:06:26.533Z,100983.56
2023-02-22T23:09:04.007Z,100981.88
2023-02-22T23:11:33.717Z,100973.69
2023-02-22T23:14:03.560Z,100974.53
2023-02-22T23:16:32.287Z,100980.22
2023-02-22T23:18:59.056Z,100975.69
2023-02-22T23:21:26.012Z,100979.69
2023-02-22T23:23:58.278Z,100977.41
2023-02-22T23:26:27.144Z,100976.28
2023-02-22T23:28:56.296Z,100975.41
2023-02-22T23:31:23.671Z,100980.94
2023-02-22T23:33:50.641Z,100979.94
2023-02-22T23:36:18.561Z,100982.78
2023-02-22T23:38:46.030Z,100971.22
2023-02-22T23:41:18.677Z,100973.91
2023-02-22T23:43:45.857Z,100976.28
2023-02-22T23:46:18.412Z,100969.19
2023-02-22T23:48:50.786Z,100961.84
2023-02-22T23:51:20.768Z,100958.44
2023-02-22T23:53:49.137Z,100966.50
2023-02-22T23:56:20.975Z,100958.31
2023-02-22T23:58:50.446Z,100963.28
